Time;durP1;ratioP1;P1;durP2;ratioP2;P2;SDS_P1;SDS_P2;PMS_P1;PMS_P2;Temp;Humidity;BMP_temperature;BMP_pressure;BME280_temperature;BME280_humidity;BME280_pressure;Samples;Min_cycle;Max_cycle;Signal;HPM_P1;HPM_P2
2022/07/07 04:18:46;;;;;;;24.08;12.30;;;;;;;19.87;58.91;101162.16;5065287;28;20428;-86
2022/07/07 04:21:11;;;;;;;21.40;11.45;;;;;;;19.99;57.98;101158.53;5066512;28;20445;-91
2022/07/07 04:23:37;;;;;;;45.28;11.18;;;;;;;20.17;57.89;101162.31;5056203;28;20079;-88
2022/07/07 04:26:02;;;;;;;38.70;11.93;;;;;;;20.37;57.08;101176.47;5043152;28;20055;-87
2022/07/07 04:28:31;;;;;;;23.50;11.10;;;;;;;20.90;56.03;101176.47;5064966;28;20040;-85
2022/07/07 04:30:56;;;;;;;23.58;11.63;;;;;;;21.04;55.80;101181.44;5048201;28;20694;-84
2022/07/07 04:33:22;;;;;;;45.33;12.85;;;;;;;21.34;54.67;101169.31;5066108;28;20025;-84
2022/07/07 04:35:48;;;;;;;20.38;11.63;;;;;;;21.37;55.26;101172.50;5049486;28;20021;-90
2022/07/07 04:38:13;;;;;;;24.75;14.07;;;;;;;21.47;54.71;101165.47;5049759;28;20029;-88
2022/07/07 04:40:40;;;;;;;40.08;22.60;;;;;;;21.44;54.87;101168.38;5027844;28;20574;-89
2022/07/07 04:43:05;;;;;;;56.25;30.77;;;;;;;21.60;54.21;101177.56;5053097;28;20047;-88
2022/07/07 04:45:31;;;;;;;34.53;20.58;;;;;;;21.72;53.73;101172.06;5057116;23;20058;-92
2022/07/07 04:47:56;;;;;;;31.40;15.93;;;;;;;21.82;53.83;101180.00;4987998;28;20034;-84
2022/07/07 04:50:24;;;;;;;22.88;14.50;;;;;;;22.09;52.99;101173.31;4954039;28;20061;-86
2022/07/07 04:52:50;;;;;;;25.58;12.20;;;;;;;22.20;52.86;101175.81;4967559;28;20145;-92
2022/07/07 04:55:15;;;;;;;24.55;11.45;;;;;;;22.35;52.71;101166.53;5007742;28;20057;-89
2022/07/07 04:57:41;;;;;;;19.70;10.55;;;;;;;22.70;52.21;101180.94;5002110;28;21214;-90
2022/07/07 05:00:07;;;;;;;11.05;8.98;;;;;;;22.79;50.69;101190.66;4988327;28;20415;-85
2022/07/07 05:02:32;;;;;;;15.65;10.13;;;;;;;22.80;50.43;101184.41;4986733;28;20571;-87
2022/07/07 05:04:58;;;;;;;16.77;9.20;;;;;;;22.89;50.72;101180.97;5006866;28;20122;-85
2022/07/07 05:07:23;;;;;;;16.17;9.60;;;;;;;23.27;50.34;101193.25;5022034;28;20411;-85
2022/07/07 05:09:49;;;;;;;14.15;8.38;;;;;;;23.23;49.40;101189.25;5003183;28;20030;-89
2022/07/07 05:12:14;;;;;;;17.95;8.00;;;;;;;23.15;48.52;101174.13;4998552;28;20419;-84
2022/07/07 05:14:41;;;;;;;11.80;7.45;;;;;;;23.24;49.77;101192.72;5002124;28;20042;-83
2022/07/07 05:17:07;;;;;;;17.98;8.10;;;;;;;23.69;49.05;101188.38;4986144;28;20404;-87
2022/07/07 05:19:32;;;;;;;11.93;8.13;;;;;;;24.00;47.17;101196.03;4991113;28;20027;-87
2022/07/07 05:21:58;;;;;;;11.45;7.32;;;;;;;24.09;46.92;101200.44;4996466;28;20645;-85
2022/07/07 05:24:24;;;;;;;10.50;7.80;;;;;;;24.13;45.04;101185.91;4970800;28;20045;-86
2022/07/07 05:26:49;;;;;;;15.18;8.90;;;;;;;23.94;45.59;101197.44;5023907;28;20370;-88
2022/07/07 05:29:15;;;;;;;17.42;8.90;;;;;;;23.99;46.37;101200.50;5006990;28;20049;-87
2022/07/07 05:31:40;;;;;;;7.70;6.63;;;;;;;23.92;45.06;101204.69;4984488;28;20046;-89
2022/07/07 05:34:06;;;;;;;12.90;8.07;;;;;;;23.90;45.94;101201.38;4989193;28;20473;-87
2022/07/07 05:36:32;;;;;;;9.85;6.85;;;;;;;23.98;44.49;101211.19;4972551;28;20045;-86
2022/07/07 05:38:57;;;;;;;20.58;8.50;;;;;;;24.10;45.85;101207.38;4956696;28;20035;-87
2022/07/07 05:41:23;;;;;;;27.45;10.85;;;;;;;23.99;44.74;101218.13;4974645;28;20034;-84
2022/07/07 05:43:48;;;;;;;9.48;7.22;;;;;;;23.91;45.00;101207.50;4973400;28;20057;-86
2022/07/07 05:46:14;;;;;;;10.07;7.07;;;;;;;24.07;45.08;101206.81;4987830;28;20042;-89
2022/07/07 05:48:40;;;;;;;11.05;7.85;;;;;;;24.16;45.33;101227.91;4991919;28;20480;-86
2022/07/07 05:51:05;;;;;;;15.85;8.65;;;;;;;24.28;45.24;101217.94;4984229;28;20042;-83
2022/07/07 05:53:31;;;;;;;14.88;9.23;;;;;;;24.40;44.76;101216.81;4961255;28;20050;-86
2022/07/07 05:55:56;;;;;;;15.98;9.43;;;;;;;24.42;45.56;101221.94;4995278;28;20069;-85
2022/07/07 05:58:22;;;;;;;16.17;8.80;;;;;;;24.53;44.99;101214.59;5000059;28;20038;-82
2022/07/07 06:00:48;;;;;;;11.00;7.40;;;;;;;24.71;43.47;101219.06;4990888;28;20050;-84
2022/07/07 06:03:13;;;;;;;10.50;7.72;;;;;;;24.91;44.25;101222.38;5007584;28;20125;-84
2022/07/07 06:05:39;;;;;;;12.32;7.35;;;;;;;24.89;44.00;101219.88;4991467;28;20072;-85
2022/07/07 06:08:04;;;;;;;13.70;7.32;;;;;;;24.91;42.74;101217.91;5001874;28;20557;-84
2022/07/07 06:10:31;;;;;;;15.20;6.85;;;;;;;24.85;42.79;101224.63;4988316;28;20038;-85
2022/07/07 06:12:56;;;;;;;9.68;6.70;;;;;;;24.99;41.33;101227.72;4988137;28;20034;-84
2022/07/07 06:15:22;;;;;;;13.63;8.10;;;;;;;24.78;41.26;101213.00;4990732;28;20030;-84
2022/07/07 06:17:48;;;;;;;11.43;7.75;;;;;;;24.95;40.93;101216.59;4983425;28;20508;-91
2022/07/07 06:20:13;;;;;;;10.27;6.88;;;;;;;25.03;41.75;101235.22;4978481;28;20018;-90
2022/07/07 06:22:39;;;;;;;12.98;8.35;;;;;;;25.03;41.82;101227.28;4981514;28;20138;-91
2022/07/07 06:25:07;;;;;;;14.20;7.43;;;;;;;24.93;41.68;101204.50;4986485;28;20062;-85
2022/07/07 06:27:32;;;;;;;11.07;7.22;;;;;;;24.99;41.46;101223.25;4971731;28;20054;-86
2022/07/07 06:29:58;;;;;;;11.43;7.97;;;;;;;25.10;42.06;101225.69;4976562;28;20440;-89
2022/07/07 06:32:23;;;;;;;11.43;7.18;;;;;;;25.21;41.49;101221.13;4968378;28;20042;-89
2022/07/07 06:34:49;;;;;;;9.20;7.20;;;;;;;25.32;41.59;101232.28;5005345;28;20484;-88
2022/07/07 06:37:14;;;;;;;10.98;8.55;;;;;;;25.35;41.73;101225.84;5001505;28;20415;-90
2022/07/07 06:39:40;;;;;;;10.85;7.82;;;;;;;25.43;41.43;101229.38;4990980;28;20644;-86
2022/07/07 06:42:05;;;;;;;18.55;12.45;;;;;;;25.74;41.68;101248.25;4973447;28;20030;-85
2022/07/07 06:44:32;;;;;;;12.45;8.30;;;;;;;25.84;41.49;101247.31;4974118;28;20034;-86
2022/07/07 06:46:58;;;;;;;12.38;8.23;;;;;;;25.87;40.44;101234.59;4974351;28;20030;-85
2022/07/07 06:49:25;;;;;;;13.38;8.90;;;;;;;25.97;40.81;101243.25;4987925;28;20554;-82
2022/07/07 06:51:50;;;;;;;14.40;8.98;;;;;;;26.13;40.77;101231.00;4979817;28;20065;-85
2022/07/07 06:54:16;;;;;;;12.65;9.05;;;;;;;26.20;40.47;101242.63;4993736;28;20065;-84
2022/07/07 06:56:41;;;;;;;12.88;7.47;;;;;;;26.13;39.67;101210.63;5015706;28;20065;-87
2022/07/07 06:59:07;;;;;;;10.48;6.90;;;;;;;26.24;38.96;101222.75;4990267;28;20068;-86
2022/07/07 07:01:32;;;;;;;8.10;6.30;;;;;;;26.34;37.58;101234.03;4989695;28;20027;-84
2022/07/07 07:03:58;;;;;;;10.43;7.57;;;;;;;26.45;38.77;101233.78;4990455;28;20053;-87
2022/07/07 07:06:25;;;;;;;10.10;7.40;;;;;;;26.58;37.59;101231.47;4986175;28;20022;-89
2022/07/07 07:08:50;;;;;;;20.27;11.32;;;;;;;26.63;38.17;101227.47;4970601;28;20066;-83
2022/07/07 07:11:16;;;;;;;14.57;10.18;;;;;;;26.77;38.26;101229.50;4988080;28;20053;-88
2022/07/07 07:13:42;;;;;;;14.23;7.57;;;;;;;26.80;38.14;101219.34;4976477;28;20034;-89
2022/07/07 07:16:07;;;;;;;16.17;8.23;;;;;;;26.98;38.53;101221.00;5009614;28;20052;-88
2022/07/07 07:18:33;;;;;;;18.02;15.25;;;;;;;27.08;35.73;101222.53;4968877;28;20085;-91
2022/07/07 07:20:58;;;;;;;18.30;12.43;;;;;;;26.89;36.07;101233.47;4983482;28;20049;-87
2022/07/07 07:23:24;;;;;;;9.70;6.00;;;;;;;27.00;34.39;101225.16;4979507;28;20448;-87
2022/07/07 07:25:50;;;;;;;9.05;6.65;;;;;;;27.08;35.99;101233.16;4994316;28;20030;-87
2022/07/07 07:28:16;;;;;;;25.50;18.90;;;;;;;27.25;35.54;101233.13;5002853;28;20081;-87
2022/07/07 07:30:41;;;;;;;8.30;6.10;;;;;;;27.41;35.37;101230.41;4973185;28;20518;-90
2022/07/07 07:33:07;;;;;;;14.82;6.20;;;;;;;27.43;34.29;101225.75;5007202;28;20428;-87
2022/07/07 07:35:32;;;;;;;21.13;9.40;;;;;;;27.49;35.05;101232.22;4965654;28;20035;-85
2022/07/07 07:37:58;;;;;;;24.38;9.98;;;;;;;27.58;33.32;101234.69;4996732;28;20030;-92
2022/07/07 07:40:23;;;;;;;17.70;8.13;;;;;;;27.57;33.11;101226.91;4986661;28;20851;-84
2022/07/07 07:42:49;;;;;;;20.70;9.23;;;;;;;27.39;34.46;101213.81;5023511;28;20029;-82
2022/07/07 07:45:14;;;;;;;17.00;8.13;;;;;;;27.55;32.58;101227.06;4990873;28;20046;-82
2022/07/07 07:47:41;;;;;;;10.05;7.15;;;;;;;27.68;33.99;101238.00;4977125;28;20495;-85
2022/07/07 07:50:10;;;;;;;6.60;5.40;;;;;;;27.75;31.55;101230.19;4979366;28;20070;-86
2022/07/07 07:52:36;;;;;;;9.02;6.20;;;;;;;27.94;34.04;101250.22;4977114;28;20066;-86
2022/07/07 07:55:01;;;;;;;13.93;8.85;;;;;;;27.95;31.34;101231.41;5003930;28;20035;-87
2022/07/07 07:57:27;;;;;;;24.58;18.08;;;;;;;27.99;32.37;101232.72;4995547;28;20436;-84
2022/07/07 07:59:52;;;;;;;6.60;5.63;;;;;;;28.01;31.87;101222.72;4983881;28;20038;-86
2022/07/07 08:02:18;;;;;;;8.07;5.50;;;;;;;28.20;32.15;101234.75;4985839;28;20030;-92
2022/07/07 08:04:43;;;;;;;9.18;5.85;;;;;;;28.21;31.60;101220.44;4982109;28;20035;-92
2022/07/07 08:07:09;;;;;;;8.93;6.85;;;;;;;28.25;32.48;101221.78;4978648;28;21106;-91
2022/07/07 08:09:35;;;;;;;12.02;6.93;;;;;;;28.16;32.64;101217.50;4963276;28;20030;-88
2022/07/07 08:12:00;;;;;;;6.85;5.70;;;;;;;28.37;31.96;101240.03;4989681;28;20026;-85
2022/07/07 08:14:26;;;;;;;7.78;5.85;;;;;;;28.19;31.64;101211.81;4989942;28;20388;-85
2022/07/07 08:16:51;;;;;;;6.35;5.20;;;;;;;28.28;32.17;101237.41;4988852;28;20038;-83
2022/07/07 08:19:19;;;;;;;7.43;5.43;;;;;;;28.28;32.03;101242.72;5004312;28;20137;-86
2022/07/07 08:21:48;;;;;;;8.05;5.35;;;;;;;28.29;31.81;101233.75;5001502;28;20041;-86
2022/07/07 08:24:14;;;;;;;9.90;7.18;;;;;;;28.26;32.08;101226.09;4974374;28;20460;-86
2022/07/07 08:26:40;;;;;;;10.75;8.77;;;;;;;28.42;31.62;101225.19;4957091;28;20038;-89
2022/07/07 08:29:05;;;;;;;5.90;5.05;;;;;;;28.54;30.61;101237.06;4974635;28;20046;-87
2022/07/07 08:31:31;;;;;;;6.57;5.00;;;;;;;28.52;30.46;101219.63;4980727;28;20038;-82
2022/07/07 08:33:57;;;;;;;7.10;5.38;;;;;;;28.53;30.96;101227.44;4996723;28;20030;-84
2022/07/07 08:36:22;;;;;;;6.53;5.75;;;;;;;28.71;31.43;101231.59;4982890;28;20031;-84
2022/07/07 08:38:48;;;;;;;7.88;5.20;;;;;;;28.89;31.33;101240.13;4983283;28;20063;-88
2022/07/07 08:41:15;;;;;;;8.98;5.43;;;;;;;29.07;30.89;101231.81;4976118;28;20110;-84
2022/07/07 08:43:40;;;;;;;6.32;5.22;;;;;;;29.28;29.94;101236.44;4987530;28;20150;-91
2022/07/07 08:46:06;;;;;;;5.43;4.70;;;;;;;29.23;29.64;101229.00;5001143;28;20050;-84
2022/07/07 08:48:32;;;;;;;7.75;5.25;;;;;;;29.41;30.45;101226.81;4980621;28;20034;-83
2022/07/07 08:50:58;;;;;;;7.32;5.68;;;;;;;29.32;31.57;101243.91;4968538;28;20023;-82
2022/07/07 08:53:24;;;;;;;8.00;6.80;;;;;;;29.24;30.47;101232.50;4971899;28;20027;-82
2022/07/07 08:55:49;;;;;;;10.90;6.35;;;;;;;29.30;31.23;101240.59;4954463;28;20031;-82
2022/07/07 08:58:15;;;;;;;8.02;5.53;;;;;;;29.05;29.95;101212.53;4974256;28;20077;-83
2022/07/07 09:00:40;;;;;;;7.20;5.07;;;;;;;29.26;30.09;101225.97;4974555;28;20492;-87
2022/07/07 09:03:07;;;;;;;11.30;7.00;;;;;;;29.34;30.93;101227.72;4968849;28;20073;-89
2022/07/07 09:05:37;;;;;;;8.63;5.22;;;;;;;29.29;29.89;101208.78;4982882;28;20034;-88
2022/07/07 09:08:17;;;;;;;5.65;4.90;;;;;;;29.47;29.55;101213.75;4995131;28;20683;-85
2022/07/07 09:10:44;;;;;;;5.30;4.80;;;;;;;29.27;29.71;101216.97;4993124;28;20026;-86
2022/07/07 09:13:29;;;;;;;8.18;6.97;;;;;;;29.63;30.26;101222.41;5025115;28;20049;-92
2022/07/07 09:15:57;;;;;;;5.90;5.22;;;;;;;29.61;30.53;101208.47;5008759;28;20017;-83
2022/07/07 09:18:31;;;;;;;6.20;5.00;;;;;;;29.75;29.67;101220.09;5026453;28;21186;-87
2022/07/07 09:20:57;;;;;;;19.88;13.90;;;;;;;29.76;30.48;101232.41;5011185;28;20060;-85
2022/07/07 09:23:22;;;;;;;6.47;4.70;;;;;;;29.76;28.98;101211.09;4987151;28;20081;-92
2022/07/07 09:25:48;;;;;;;8.23;6.00;;;;;;;29.85;29.97;101212.63;5013708;28;20045;-90
2022/07/07 09:28:14;;;;;;;6.68;4.70;;;;;;;29.67;27.68;101204.19;5007083;28;20026;-86
2022/07/07 09:30:43;;;;;;;7.95;6.50;;;;;;;29.65;29.06;101208.91;5020540;28;20530;-85
2022/07/07 09:33:21;;;;;;;8.40;7.05;;;;;;;29.98;29.59;101210.13;5011870;28;20033;-87
2022/07/07 09:38:32;;;;;;;7.53;6.28;;;;;;;30.23;28.39;101220.47;5009169;28;20754;-89
2022/07/07 09:41:05;;;;;;;16.10;12.60;;;;;;;30.36;28.30;101207.25;5008522;28;20030;-92
2022/07/07 09:43:52;;;;;;;5.90;5.00;;;;;;;30.34;28.41;101206.63;5008043;28;20037;-85
2022/07/07 09:46:20;;;;;;;17.05;7.07;;;;;;;30.37;28.81;101205.41;4975395;28;20046;-89
2022/07/07 09:48:53;;;;;;;6.18;4.40;;;;;;;30.44;27.08;101200.97;4974883;28;20114;-93
2022/07/07 09:51:26;;;;;;;8.05;5.10;;;;;;;30.70;26.77;101203.09;4975446;28;20082;-88
2022/07/07 09:53:58;;;;;;;8.65;5.10;;;;;;;30.98;27.58;101206.59;4979147;28;20221;-86
2022/07/07 09:56:28;;;;;;;7.25;4.68;;;;;;;30.80;27.87;101203.59;5005829;28;20060;-85
2022/07/07 09:58:54;;;;;;;7.10;4.90;;;;;;;30.73;27.39;101192.84;4958391;28;20193;-88
2022/07/07 10:01:24;;;;;;;5.13;4.50;;;;;;;30.77;27.00;101202.09;5002719;28;20061;-89
2022/07/07 10:03:55;;;;;;;5.65;4.55;;;;;;;30.59;26.34;101198.25;4964600;28;20045;-93
2022/07/07 10:06:20;;;;;;;6.40;5.28;;;;;;;30.67;27.62;101198.13;4970653;28;20439;-92
2022/07/07 10:08:46;;;;;;;11.30;7.97;;;;;;;30.79;27.56;101192.06;4971143;28;20038;-85
2022/07/07 10:11:12;;;;;;;5.80;5.20;;;;;;;30.52;26.99;101174.97;4972410;28;20042;-86
2022/07/07 10:13:38;;;;;;;6.45;4.85;;;;;;;30.36;26.40;101179.75;4988390;28;20057;-86
2022/07/07 10:16:05;;;;;;;7.22;4.63;;;;;;;30.73;26.99;101186.66;4973149;28;20464;-86
2022/07/07 10:18:31;;;;;;;9.63;7.50;;;;;;;30.87;27.23;101180.41;4973249;28;20473;-87
2022/07/07 10:20:56;;;;;;;15.15;9.95;;;;;;;31.10;26.54;101172.97;4987797;28;20034;-86
2022/07/07 10:23:22;;;;;;;5.75;5.15;;;;;;;31.17;26.47;101189.06;4970081;28;20046;-86
2022/07/07 10:26:01;;;;;;;7.90;4.78;;;;;;;31.13;25.25;101177.91;4984366;28;20053;-86
2022/07/07 10:28:54;;;;;;;5.95;4.97;;;;;;;31.09;25.83;101175.84;4967429;28;20431;-91
2022/07/07 10:31:24;;;;;;;6.65;4.95;;;;;;;31.01;25.80;101168.78;4983867;28;20033;-90
2022/07/07 10:33:59;;;;;;;4.65;4.25;;;;;;;30.76;26.37;101171.06;4970651;28;20065;-94
2022/07/07 10:36:25;;;;;;;5.18;4.30;;;;;;;31.15;25.59;101166.19;4986470;28;20049;-92
2022/07/07 10:38:52;;;;;;;5.78;4.20;;;;;;;30.99;25.03;101176.19;4986295;28;20058;-92
2022/07/07 10:41:24;;;;;;;4.85;3.90;;;;;;;31.01;25.54;101166.13;4975828;28;20026;-90
2022/07/07 10:44:10;;;;;;;5.10;4.60;;;;;;;31.16;24.36;101170.50;4984164;28;20035;-90
2022/07/07 10:46:36;;;;;;;5.15;4.10;;;;;;;31.18;24.80;101168.50;4985341;28;20133;-90
2022/07/07 10:49:11;;;;;;;6.53;5.10;;;;;;;31.36;24.73;101155.44;5001470;28;20431;-92
2022/07/07 10:51:55;;;;;;;4.88;4.13;;;;;;;31.49;25.88;101155.50;4969074;28;20081;-91
2022/07/07 10:54:38;;;;;;;8.07;4.93;;;;;;;31.41;24.24;101163.69;4974063;28;20621;-93
2022/07/07 10:57:05;;;;;;;11.55;6.75;;;;;;;31.44;24.97;101152.59;4952795;28;20030;-87
2022/07/07 10:59:51;;;;;;;9.85;5.82;;;;;;;31.04;25.53;101128.31;4977741;28;20050;-89
2022/07/07 11:02:16;;;;;;;5.03;4.53;;;;;;;31.34;24.97;101126.22;4979004;28;20073;-87
2022/07/07 11:04:42;;;;;;;5.47;4.20;;;;;;;31.61;24.25;101148.56;4971575;28;20057;-89
2022/07/07 11:07:10;;;;;;;6.15;4.93;;;;;;;31.73;25.61;101151.47;4986298;28;20037;-90
2022/07/07 11:09:54;;;;;;;5.63;4.32;;;;;;;31.94;25.29;101153.19;4967346;28;20457;-87
2022/07/07 11:12:52;;;;;;;7.53;5.25;;;;;;;31.96;25.23;101151.16;4987421;28;20026;-88
2022/07/07 11:15:21;;;;;;;6.10;4.55;;;;;;;31.85;23.88;101146.38;4967212;28;20064;-86
2022/07/07 11:17:52;;;;;;;5.30;4.70;;;;;;;31.85;25.41;101138.34;4983892;28;20038;-91
2022/07/07 11:20:22;;;;;;;7.18;4.47;;;;;;;31.70;24.51;101130.47;4987198;28;20030;-91
2022/07/07 11:22:49;;;;;;;9.27;8.13;;;;;;;31.93;24.80;101135.50;4966904;28;20074;-93
2022/07/07 11:25:17;;;;;;;5.07;4.32;;;;;;;31.91;23.83;101119.66;4968364;28;20030;-89
2022/07/07 11:27:43;;;;;;;6.22;4.50;;;;;;;32.04;24.04;101118.84;4967082;28;20125;-83
2022/07/07 11:30:08;;;;;;;9.65;8.00;;;;;;;32.38;24.62;101117.88;4973652;28;20034;-83
2022/07/07 11:32:38;;;;;;;6.22;5.63;;;;;;;32.21;24.67;101111.25;4987653;28;20042;-88
2022/07/07 11:35:13;;;;;;;6.13;4.50;;;;;;;32.06;23.65;101098.06;4966854;28;20101;-88
2022/07/07 11:37:41;;;;;;;5.38;4.88;;;;;;;31.91;24.97;101106.28;4968630;28;20279;-86
2022/07/07 11:40:12;;;;;;;6.50;5.07;;;;;;;31.87;24.68;101121.09;4965975;28;20069;-88
2022/07/07 11:42:38;;;;;;;7.85;5.22;;;;;;;32.06;24.17;101108.78;4977103;28;20077;-86
2022/07/07 11:45:04;;;;;;;5.28;4.78;;;;;;;32.13;24.46;101104.25;4982771;28;20058;-86
2022/07/07 11:47:34;;;;;;;9.15;4.85;;;;;;;32.04;24.23;101083.22;4970628;28;20121;-88
2022/07/07 11:49:59;;;;;;;6.30;5.28;;;;;;;32.14;23.52;101097.84;4979238;28;20614;-85
2022/07/07 11:52:25;;;;;;;4.90;4.50;;;;;;;32.24;23.62;101094.75;4973834;28;20037;-87
2022/07/07 11:54:50;;;;;;;5.35;4.65;;;;;;;32.85;22.59;101080.34;4974307;28;20034;-88
2022/07/07 11:57:26;;;;;;;6.45;5.07;;;;;;;32.97;23.99;101094.72;4986313;28;20072;-91
2022/07/07 11:59:52;;;;;;;5.63;4.70;;;;;;;32.29;24.74;101088.81;4971818;28;20050;-85
2022/07/07 12:02:17;;;;;;;5.10;4.60;;;;;;;32.77;23.13;101095.56;4964162;28;20088;-85
2022/07/07 12:04:43;;;;;;;5.50;5.00;;;;;;;32.99;22.22;101077.41;5000798;28;20456;-89
2022/07/07 12:07:10;;;;;;;4.90;4.50;;;;;;;33.43;22.79;101086.50;4986206;28;20030;-85
2022/07/07 12:09:35;;;;;;;6.80;5.03;;;;;;;33.56;23.75;101078.41;4998593;28;20042;-82
2022/07/07 12:12:01;;;;;;;7.05;5.80;;;;;;;33.12;22.54;101081.88;4964754;28;20089;-84
2022/07/07 12:14:27;;;;;;;48.80;41.03;;;;;;;32.95;22.45;101080.72;4965858;28;20046;-88
2022/07/07 12:16:52;;;;;;;5.28;4.78;;;;;;;32.61;22.80;101066.53;4981213;28;20037;-83
2022/07/07 12:19:18;;;;;;;8.52;7.00;;;;;;;32.76;21.88;101064.47;4967322;28;20038;-85
2022/07/07 12:21:48;;;;;;;7.13;4.75;;;;;;;33.14;21.65;101074.47;4985428;28;20888;-84
2022/07/07 12:24:20;;;;;;;7.20;5.95;;;;;;;33.17;22.19;101062.50;4989260;28;20027;-85
2022/07/07 12:26:48;;;;;;;9.45;4.97;;;;;;;33.20;22.18;101067.41;4967300;28;20038;-93
2022/07/07 12:29:17;;;;;;;11.35;9.00;;;;;;;33.24;22.16;101042.66;4983777;28;20412;-86
2022/07/07 12:31:43;;;;;;;15.40;13.68;;;;;;;33.23;22.80;101070.50;4982735;28;20030;-89
2022/07/07 12:34:13;;;;;;;4.90;4.40;;;;;;;32.56;21.94;101044.94;4983868;28;20124;-92
2022/07/07 12:36:40;;;;;;;5.07;4.15;;;;;;;32.95;23.36;101056.63;4977127;28;20505;-88
2022/07/07 12:39:05;;;;;;;7.50;4.38;;;;;;;32.51;22.45;101047.41;4967123;28;20035;-88
2022/07/07 12:41:40;;;;;;;7.57;5.28;;;;;;;32.83;23.62;101064.47;4983280;28;20603;-88
2022/07/07 12:44:29;;;;;;;8.38;4.80;;;;;;;33.03;21.87;101038.41;4981413;28;20018;-87
2022/07/07 12:46:56;;;;;;;6.18;5.25;;;;;;;32.19;24.08;101038.38;4969528;28;20038;-85
2022/07/07 12:49:21;;;;;;;7.35;5.93;;;;;;;31.81;25.00;101051.53;4984808;28;20052;-87
2022/07/07 12:51:49;;;;;;;6.40;5.20;;;;;;;31.82;24.87;101050.50;4969025;28;20499;-88
2022/07/07 12:54:27;;;;;;;5.45;4.75;;;;;;;31.16;26.09;101031.53;4969002;28;20037;-86
2022/07/07 12:57:04;;;;;;;6.53;4.97;;;;;;;31.37;25.51;101045.66;4986063;28;20041;-85
2022/07/07 12:59:44;;;;;;;5.20;4.70;;;;;;;31.45;25.05;101041.94;4970235;28;20408;-88
2022/07/07 13:02:10;;;;;;;6.60;6.00;;;;;;;31.87;24.85;101046.19;4973988;28;20042;-86
2022/07/07 13:04:36;;;;;;;8.32;7.53;;;;;;;32.03;23.74;101047.63;4988162;28;20042;-87
2022/07/07 13:07:01;;;;;;;6.55;4.68;;;;;;;31.49;24.14;101032.53;4990195;28;20030;-85
2022/07/07 13:09:27;;;;;;;7.13;5.43;;;;;;;31.60;25.13;101057.84;5002642;28;20062;-86
2022/07/07 13:11:53;;;;;;;7.80;5.85;;;;;;;31.59;24.62;101049.00;4969153;28;20038;-87
2022/07/07 13:14:18;;;;;;;6.35;5.00;;;;;;;31.26;25.18;101043.53;5001608;28;20037;-85
2022/07/07 13:16:44;;;;;;;7.20;4.78;;;;;;;31.49;24.58;101035.19;4969256;28;20031;-87
2022/07/07 13:19:09;;;;;;;15.48;11.15;;;;;;;31.55;25.09;101037.03;4968855;28;20062;-85
2022/07/07 13:21:35;;;;;;;12.63;10.52;;;;;;;31.42;25.14;101031.66;5000126;28;20051;-87
2022/07/07 13:24:00;;;;;;;6.78;5.88;;;;;;;31.56;25.47;101033.38;4992420;28;20059;-89
2022/07/07 13:26:26;;;;;;;7.03;5.57;;;;;;;31.48;25.46;100995.28;4968795;28;20100;-87
2022/07/07 13:28:51;;;;;;;8.95;7.38;;;;;;;31.88;25.23;101026.44;4985186;28;20065;-87
2022/07/07 13:31:17;;;;;;;5.97;5.10;;;;;;;32.12;25.46;101016.94;4965940;28;20463;-84
2022/07/07 13:33:43;;;;;;;7.50;6.15;;;;;;;32.21;25.71;101020.22;4971225;28;20030;-87
2022/07/07 13:36:09;;;;;;;9.00;4.63;;;;;;;32.18;25.28;101015.31;4986250;28;20108;-85
2022/07/07 13:38:35;;;;;;;7.18;5.25;;;;;;;32.15;25.55;101021.06;4983314;28;21097;-84
2022/07/07 13:41:00;;;;;;;5.38;4.47;;;;;;;32.09;24.78;101028.06;4987683;28;20030;-83
2022/07/07 13:43:26;;;;;;;10.35;9.10;;;;;;;31.93;25.71;101015.09;5010158;28;20060;-85
2022/07/07 13:45:51;;;;;;;10.57;5.32;;;;;;;31.78;28.55;101019.84;4986485;28;20054;-84
2022/07/07 13:48:18;;;;;;;8.68;5.13;;;;;;;31.63;31.60;101011.97;4985560;28;20057;-86
2022/07/07 13:50:43;;;;;;;7.00;5.68;;;;;;;31.17;34.64;101014.50;4967546;28;20040;-89
2022/07/07 13:53:09;;;;;;;8.30;6.03;;;;;;;30.85;37.88;101035.53;4968911;28;20038;-84
2022/07/07 13:55:35;;;;;;;10.10;6.13;;;;;;;30.67;38.60;101022.69;4984948;28;20065;-86
2022/07/07 13:58:00;;;;;;;10.57;6.35;;;;;;;30.53;39.24;101031.63;4969227;28;20081;-84
2022/07/07 14:00:26;;;;;;;10.85;6.40;;;;;;;30.44;39.12;101028.28;4968422;28;20031;-83
2022/07/07 14:02:52;;;;;;;16.20;8.48;;;;;;;30.52;38.81;101008.63;4991677;28;20034;-83
2022/07/07 14:05:18;;;;;;;14.43;7.10;;;;;;;30.58;37.56;101021.19;4976003;28;20117;-82
2022/07/07 14:07:43;;;;;;;9.32;6.75;;;;;;;30.59;35.81;101017.50;4989108;28;20427;-83
2022/07/07 14:10:09;;;;;;;9.32;6.43;;;;;;;30.58;36.32;101017.69;4988523;28;20030;-83
2022/07/07 14:12:35;;;;;;;7.07;5.88;;;;;;;30.34;35.41;101018.97;4952653;28;20139;-87
2022/07/07 14:15:01;;;;;;;8.70;5.80;;;;;;;30.15;35.20;101023.16;4985002;28;20492;-86
2022/07/07 14:17:27;;;;;;;8.75;5.90;;;;;;;30.03;36.01;101003.31;4986230;28;20411;-89
2022/07/07 14:19:53;;;;;;;9.55;5.75;;;;;;;30.08;36.84;101008.91;4979546;28;20018;-92
2022/07/07 14:22:19;;;;;;;6.82;6.13;;;;;;;30.12;36.88;101010.19;4981587;28;20412;-94
2022/07/07 14:24:44;;;;;;;6.38;5.63;;;;;;;30.17;34.86;101007.75;4994856;28;20060;-95
2022/07/07 14:27:10;;;;;;;9.00;6.10;;;;;;;30.07;35.18;100999.28;4977449;28;20496;-88
2022/07/07 14:29:36;;;;;;;9.20;6.50;;;;;;;30.22;37.91;101010.69;4973328;28;20046;-91
2022/07/07 14:32:01;;;;;;;8.52;6.68;;;;;;;30.06;38.44;101006.41;4972868;28;20479;-90
2022/07/07 14:34:27;;;;;;;7.47;6.32;;;;;;;30.07;38.71;101004.59;4969289;28;20518;-90
2022/07/07 14:36:52;;;;;;;9.70;6.85;;;;;;;30.03;38.96;101000.66;4970872;28;20040;-86
2022/07/07 14:39:18;;;;;;;15.63;6.97;;;;;;;30.07;38.48;101015.28;4984163;28;20457;-87
2022/07/07 14:41:43;;;;;;;11.07;7.20;;;;;;;30.13;38.21;101018.00;4962918;28;20065;-84
2022/07/07 14:44:09;;;;;;;14.20;10.55;;;;;;;29.98;39.27;101007.38;4997215;28;20161;-84
2022/07/07 14:46:34;;;;;;;10.77;8.20;;;;;;;30.04;38.83;101010.31;4966579;28;20129;-85
2022/07/07 14:49:00;;;;;;;8.63;6.35;;;;;;;29.93;38.35;101001.81;4971054;28;20037;-87
2022/07/07 14:51:25;;;;;;;7.88;6.45;;;;;;;29.95;38.88;101002.44;4973168;28;20034;-88
2022/07/07 14:53:51;;;;;;;9.07;6.90;;;;;;;29.97;38.30;101010.25;4973390;28;20045;-86
2022/07/07 14:56:17;;;;;;;9.52;6.40;;;;;;;29.98;38.04;101015.38;4971069;28;20037;-86
2022/07/07 14:58:42;;;;;;;7.45;6.50;;;;;;;29.95;38.23;101010.44;4986868;28;20026;-88
2022/07/07 15:01:08;;;;;;;10.27;6.88;;;;;;;29.83;38.54;100995.97;4986343;28;20023;-87
2022/07/07 15:03:34;;;;;;;7.85;6.55;;;;;;;29.95;39.33;100996.28;4987154;28;20627;-87
2022/07/07 15:05:59;;;;;;;7.07;6.35;;;;;;;29.97;38.98;101005.72;4955403;28;20038;-87
2022/07/07 15:08:25;;;;;;;8.38;6.18;;;;;;;30.02;38.30;101001.69;4972061;28;20113;-93
2022/07/07 15:10:50;;;;;;;8.93;6.18;;;;;;;30.07;36.56;101000.09;4975097;28;20077;-95
2022/07/07 15:13:18;;;;;;;7.38;6.45;;;;;;;30.03;36.64;100998.81;4958109;28;20057;-93
2022/07/07 15:15:46;;;;;;;7.22;6.43;;;;;;;30.02;37.10;101002.50;4974969;28;20034;-94
2022/07/07 15:18:13;;;;;;;8.10;6.70;;;;;;;30.02;37.36;100991.00;4976164;28;20034;-93
2022/07/07 15:20:39;;;;;;;7.97;6.90;;;;;;;30.08;37.90;100995.59;4975932;28;20484;-94
2022/07/07 15:23:04;;;;;;;7.85;6.50;;;;;;;30.04;37.86;100999.63;4959635;28;20125;-94
2022/07/07 15:25:30;;;;;;;9.23;6.50;;;;;;;30.03;37.90;101003.31;4975755;28;20030;-94
2022/07/07 15:27:56;;;;;;;6.25;5.65;;;;;;;30.01;38.38;101000.03;4975559;28;20030;-94
2022/07/07 15:30:21;;;;;;;7.15;6.45;;;;;;;30.05;37.68;100995.94;4959480;28;20113;-93
2022/07/07 15:32:47;;;;;;;7.68;6.20;;;;;;;29.92;37.51;100992.16;4975680;28;20022;-93
2022/07/07 15:35:12;;;;;;;8.38;6.38;;;;;;;29.87;37.94;100991.91;4959078;28;20038;-94
2022/07/07 15:37:38;;;;;;;7.90;6.70;;;;;;;29.75;38.11;100987.28;4975429;28;20033;-92
2022/07/07 15:40:04;;;;;;;8.10;6.68;;;;;;;29.83;38.21;100998.66;4959267;28;20034;-93
2022/07/07 15:42:31;;;;;;;9.32;6.38;;;;;;;29.69;38.85;100980.88;4975099;28;20034;-94